createdAt,value
2023-04-27T00:03:06.720Z,57.67
2023-04-27T00:06:34.692Z,57.53
2023-04-27T00:10:10.786Z,57.42
2023-04-27T00:13:37.469Z,57.62
2023-04-27T00:17:04.477Z,57.48
2023-04-27T00:20:31.007Z,57.62
2023-04-27T00:23:58.650Z,57.62
2023-04-27T00:27:25.544Z,57.81
2023-04-27T00:30:54.603Z,57.89
2023-04-27T00:34:21.936Z,57.91
2023-04-27T00:37:49.059Z,58.01
2023-04-27T00:41:15.649Z,58.18
2023-04-27T00:44:42.757Z,58.04
2023-04-27T00:48:10.049Z,57.85
2023-04-27T00:51:36.807Z,58.37
2023-04-27T00:55:06.454Z,58.62
2023-04-27T00:58:33.561Z,58.36
2023-04-27T01:02:01.066Z,58.34
2023-04-27T01:05:31.320Z,58.49
2023-04-27T01:08:59.194Z,58.56
2023-04-27T01:12:29.315Z,58.71
2023-04-27T01:15:56.314Z,58.73
2023-04-27T01:19:24.419Z,59.32
2023-04-27T01:22:50.935Z,59.11
2023-04-27T01:26:17.776Z,59.33
2023-04-27T01:29:44.308Z,59.76
2023-04-27T01:33:11.184Z,59.70
2023-04-27T01:36:38.887Z,59.60
2023-04-27T01:40:06.881Z,59.51
2023-04-27T01:43:34.443Z,59.94
2023-04-27T01:47:01.340Z,59.76
2023-04-27T01:50:28.757Z,59.75
2023-04-27T01:53:55.506Z,59.66
2023-04-27T01:57:21.946Z,59.83
2023-04-27T02:00:49.101Z,60.04
2023-04-27T02:04:16.228Z,59.82
2023-04-27T02:07:43.414Z,60.01
2023-04-27T02:11:10.374Z,59.88
2023-04-27T02:14:37.080Z,59.88
2023-04-27T02:18:04.854Z,59.92
2023-04-27T02:21:31.848Z,60.11
2023-04-27T02:24:59.438Z,60.19
2023-04-27T02:28:26.602Z,60.46
2023-04-27T02:31:53.866Z,60.65
2023-04-27T02:35:20.793Z,60.53
2023-04-27T02:38:47.422Z,60.53
2023-04-27T02:42:14.145Z,60.82
2023-04-27T02:45:42.043Z,60.71
2023-04-27T02:49:09.102Z,60.76
2023-04-27T02:52:37.349Z,60.89
2023-04-27T02:56:03.782Z,61.14
2023-04-27T02:59:30.473Z,61.15
2023-04-27T03:02:57.575Z,60.86
2023-04-27T03:06:24.884Z,60.98
2023-04-27T03:09:52.147Z,60.99
2023-04-27T03:13:19.191Z,60.81
2023-04-27T03:16:45.948Z,61.04
2023-04-27T03:20:15.514Z,61.39
2023-04-27T03:23:42.872Z,61.12
2023-04-27T03:27:09.836Z,61.33
2023-04-27T03:30:37.309Z,61.29
2023-04-27T03:34:04.320Z,61.31
2023-04-27T03:37:34.544Z,61.49
2023-04-27T03:41:01.252Z,61.37
2023-04-27T03:44:28.109Z,61.69
2023-04-27T03:47:55.061Z,61.83
2023-04-27T03:51:21.775Z,61.72
2023-04-27T03:54:48.826Z,61.56
2023-04-27T03:58:15.419Z,61.52
2023-04-27T04:02:02.523Z,61.66
2023-04-27T04:05:30.773Z,61.52
2023-04-27T04:08:57.535Z,61.72
2023-04-27T04:12:24.788Z,61.79
2023-04-27T04:15:52.748Z,61.83
2023-04-27T04:19:21.866Z,61.94
2023-04-27T04:22:49.283Z,62.21
2023-04-27T04:26:16.989Z,62.00
2023-04-27T04:29:43.751Z,62.32
2023-04-27T04:33:10.880Z,62.31
2023-04-27T04:36:38.579Z,62.33
2023-04-27T04:40:10.111Z,62.56
2023-04-27T04:43:37.694Z,62.12
2023-04-27T04:47:10.214Z,62.13
2023-04-27T04:50:36.696Z,62.22
2023-04-27T04:54:03.285Z,62.13
2023-04-27T04:57:33.102Z,62.47
2023-04-27T05:00:59.481Z,62.37
2023-04-27T05:04:28.203Z,62.58
2023-04-27T05:07:55.201Z,62.22
2023-04-27T05:11:22.378Z,62.51
2023-04-27T05:14:49.051Z,62.55
2023-04-27T05:18:16.271Z,62.55
2023-04-27T05:21:44.532Z,62.54
2023-04-27T05:25:12.769Z,62.50
2023-04-27T05:28:39.538Z,62.53
2023-04-27T05:32:07.196Z,62.51
2023-04-27T05:35:35.069Z,62.55
2023-04-27T05:39:02.832Z,62.72
2023-04-27T05:42:29.684Z,62.68
2023-04-27T05:45:56.775Z,62.58
2023-04-27T05:49:23.579Z,62.42
2023-04-27T05:52:50.308Z,62.53
2023-04-27T05:56:17.525Z,62.44
2023-04-27T05:59:44.680Z,62.36
2023-04-27T06:03:11.872Z,62.18
2023-04-27T06:06:39.523Z,62.16
2023-04-27T06:10:06.546Z,62.13
2023-04-27T06:13:34.214Z,62.10
2023-04-27T06:17:02.400Z,62.00
2023-04-27T06:20:29.395Z,61.85
2023-04-27T06:23:56.041Z,61.96
2023-04-27T06:27:22.355Z,61.98
2023-04-27T06:30:49.382Z,61.80
2023-04-27T06:34:16.804Z,61.50
2023-04-27T06:37:43.535Z,61.69
2023-04-27T06:41:11.270Z,61.67
2023-04-27T06:44:38.427Z,61.38
2023-04-27T06:48:06.694Z,61.16
2023-04-27T06:51:33.961Z,61.45
2023-04-27T06:55:01.393Z,61.14
2023-04-27T06:58:28.582Z,60.85
2023-04-27T07:01:55.498Z,60.66
2023-04-27T07:05:23.748Z,60.57
2023-04-27T07:08:50.772Z,60.69
2023-04-27T07:12:17.939Z,60.35
2023-04-27T07:15:44.933Z,60.19
2023-04-27T07:19:13.124Z,60.03
2023-04-27T07:22:41.860Z,59.93
2023-04-27T07:26:12.319Z,59.79
2023-04-27T07:29:40.357Z,59.51
2023-04-27T07:33:07.897Z,59.60
2023-04-27T07:36:34.946Z,59.53
2023-04-27T07:40:02.766Z,59.33
2023-04-27T07:43:32.341Z,59.50
2023-04-27T07:46:59.615Z,59.05
2023-04-27T07:50:26.609Z,58.68
2023-04-27T07:53:54.507Z,58.48
2023-04-27T07:57:21.365Z,58.14
2023-04-27T08:00:48.327Z,58.66
2023-04-27T08:04:16.313Z,58.30
2023-04-27T08:07:44.885Z,58.58
2023-04-27T08:11:13.902Z,58.18
2023-04-27T08:14:40.581Z,57.81
2023-04-27T08:18:07.294Z,57.87
2023-04-27T08:21:34.858Z,57.92
2023-04-27T08:25:01.886Z,57.83
2023-04-27T08:28:28.241Z,57.74
2023-04-27T08:31:56.726Z,57.43
2023-04-27T08:35:23.885Z,57.20
2023-04-27T08:38:51.539Z,57.26
2023-04-27T08:42:18.353Z,57.29
2023-04-27T08:45:52.047Z,57.10
2023-04-27T08:49:19.156Z,56.78
2023-04-27T08:52:49.329Z,56.73
2023-04-27T08:56:18.836Z,56.32
2023-04-27T08:59:58.807Z,56.47
2023-04-27T09:03:29.172Z,55.90
2023-04-27T09:06:55.910Z,55.57
2023-04-27T09:10:23.440Z,55.45
2023-04-27T09:13:49.826Z,55.24
2023-04-27T09:17:16.815Z,55.13
2023-04-27T09:20:47.810Z,55.26
2023-04-27T09:24:15.347Z,54.77
2023-04-27T09:27:45.246Z,54.44
2023-04-27T09:31:14.514Z,54.35
2023-04-27T09:34:45.268Z,54.36
2023-04-27T09:38:12.027Z,54.09
2023-04-27T09:41:39.714Z,53.78
2023-04-27T09:45:08.530Z,53.59
2023-04-27T09:48:35.720Z,53.51
2023-04-27T09:52:02.177Z,53.56
2023-04-27T09:55:34.094Z,53.01
2023-04-27T09:59:32.857Z,53.03
2023-04-27T10:03:15.253Z,52.99
2023-04-27T10:07:03.981Z,53.03
2023-04-27T10:10:31.439Z,52.56
2023-04-27T10:13:58.441Z,52.45
2023-04-27T10:17:31.485Z,52.35
2023-04-27T10:20:58.653Z,52.19
2023-04-27T10:24:36.194Z,52.00
2023-04-27T10:28:04.537Z,52.01
2023-04-27T10:31:32.397Z,52.00
2023-04-27T10:35:10.483Z,51.88
2023-04-27T10:38:43.365Z,51.75
2023-04-27T10:42:11.667Z,51.91
2023-04-27T10:45:43.631Z,51.96
2023-04-27T10:49:11.834Z,51.99
2023-04-27T10:52:41.802Z,51.87
2023-04-27T10:56:09.178Z,51.51
2023-04-27T10:59:37.665Z,51.47
2023-04-27T11:03:18.806Z,51.01
2023-04-27T11:06:49.033Z,50.78
2023-04-27T11:10:20.118Z,50.80
2023-04-27T11:13:49.592Z,50.67
2023-04-27T11:17:16.493Z,50.41
2023-04-27T11:20:43.320Z,50.37
2023-04-27T11:24:13.171Z,50.31
2023-04-27T11:27:42.986Z,50.38
2023-04-27T11:31:11.715Z,50.27
2023-04-27T11:34:39.201Z,50.13
2023-04-27T11:38:05.582Z,49.98
2023-04-27T11:41:40.254Z,49.65
2023-04-27T11:45:09.354Z,49.41
2023-04-27T11:48:37.544Z,49.17
2023-04-27T11:52:06.222Z,49.17
2023-04-27T11:55:38.040Z,49.06
2023-04-27T11:59:06.068Z,49.02
2023-04-27T12:02:34.841Z,48.98
2023-04-27T12:06:16.046Z,49.03
2023-04-27T12:09:48.614Z,48.87
2023-04-27T12:13:16.065Z,48.21
2023-04-27T12:16:42.941Z,47.87
2023-04-27T12:20:11.459Z,47.85
2023-04-27T12:23:38.556Z,48.07
2023-04-27T12:27:05.333Z,47.94
2023-04-27T12:30:32.309Z,48.05
2023-04-27T12:34:00.426Z,48.37
2023-04-27T12:37:27.349Z,47.58
2023-04-27T12:40:54.138Z,46.98
2023-04-27T12:44:23.157Z,47.21
2023-04-27T12:48:01.564Z,46.62
2023-04-27T12:51:30.653Z,46.04
2023-04-27T12:54:59.527Z,46.05
2023-04-27T12:58:26.363Z,45.84
2023-04-27T13:01:53.069Z,45.63
2023-04-27T13:05:20.385Z,45.56
2023-04-27T13:08:47.268Z,45.30
2023-04-27T13:12:14.275Z,45.30
2023-04-27T13:15:41.681Z,45.70
2023-04-27T13:19:08.617Z,45.75
2023-04-27T13:22:35.381Z,45.47
2023-04-27T13:26:02.752Z,44.94
2023-04-27T13:29:29.436Z,44.73
2023-04-27T13:33:04.449Z,44.72
2023-04-27T13:36:37.964Z,44.89
2023-04-27T13:40:13.998Z,44.49
2023-04-27T13:43:40.569Z,44.15
2023-04-27T13:47:08.282Z,43.91
2023-04-27T13:50:37.146Z,43.81
2023-04-27T13:54:04.193Z,43.77
2023-04-27T13:57:31.358Z,43.72
2023-04-27T14:01:02.957Z,43.93
2023-04-27T14:04:31.282Z,43.91
2023-04-27T14:07:58.206Z,44.01
2023-04-27T14:11:24.723Z,43.80
2023-04-27T14:14:52.430Z,43.76
2023-04-27T14:18:20.425Z,43.15
2023-04-27T14:21:56.356Z,42.34
2023-04-27T14:25:23.936Z,42.31
2023-04-27T14:28:51.239Z,42.38
2023-04-27T14:32:18.397Z,42.36
2023-04-27T14:35:47.371Z,42.40
2023-04-27T14:39:14.105Z,42.15
2023-04-27T14:42:41.157Z,42.14
2023-04-27T14:46:20.264Z,41.85
2023-04-27T14:49:48.525Z,41.77
2023-04-27T14:53:16.818Z,42.04
2023-04-27T14:56:44.538Z,42.02
2023-04-27T15:00:15.071Z,41.97
2023-04-27T15:03:45.359Z,42.01
2023-04-27T15:07:12.090Z,41.96
2023-04-27T15:10:38.896Z,41.83
2023-04-27T15:14:07.589Z,41.86
2023-04-27T15:17:34.790Z,42.11
2023-04-27T15:21:02.200Z,41.95
2023-04-27T15:24:31.770Z,41.75
2023-04-27T15:28:04.278Z,42.08
2023-04-27T15:31:31.159Z,41.76
2023-04-27T15:34:59.494Z,41.52
2023-04-27T15:38:26.494Z,41.60
2023-04-27T15:41:59.032Z,41.82
2023-04-27T15:45:30.908Z,41.69
2023-04-27T15:48:59.492Z,41.75
2023-04-27T15:52:27.407Z,42.05
2023-04-27T15:55:54.124Z,42.43
2023-04-27T15:59:24.743Z,42.47
2023-04-27T16:02:51.872Z,42.40
2023-04-27T16:06:18.946Z,42.45
2023-04-27T16:09:45.620Z,42.45
2023-04-27T16:13:12.591Z,42.58
2023-04-27T16:16:39.978Z,42.49
2023-04-27T16:20:08.144Z,42.23
2023-04-27T16:23:35.056Z,42.34
2023-04-27T16:27:01.793Z,42.10
2023-04-27T16:30:28.905Z,42.12
2023-04-27T16:33:56.012Z,42.28
2023-04-27T16:37:22.937Z,42.30
2023-04-27T16:40:50.161Z,42.29
2023-04-27T16:44:17.659Z,42.27
2023-04-27T16:47:46.652Z,42.03
2023-04-27T16:51:27.006Z,42.18
2023-04-27T16:54:54.014Z,42.36
2023-04-27T16:58:21.744Z,42.31
2023-04-27T17:01:48.437Z,42.35
2023-04-27T17:05:19.115Z,42.40
2023-04-27T17:08:47.187Z,42.49
2023-04-27T17:12:19.631Z,42.55
2023-04-27T17:15:46.878Z,42.51
2023-04-27T17:19:27.228Z,42.63
2023-04-27T17:22:56.994Z,42.84
2023-04-27T17:26:24.201Z,42.85
2023-04-27T17:29:52.121Z,43.31
2023-04-27T17:33:28.108Z,43.18
2023-04-27T17:37:02.212Z,43.32
2023-04-27T17:40:34.296Z,43.44
2023-04-27T17:44:04.405Z,43.35
2023-04-27T17:47:32.476Z,43.40
2023-04-27T17:50:59.937Z,43.74
2023-04-27T17:54:29.955Z,43.99
2023-04-27T17:57:58.085Z,43.92
2023-04-27T18:01:27.086Z,43.97
2023-04-27T18:04:53.871Z,44.21
2023-04-27T18:08:20.712Z,44.05
2023-04-27T18:11:48.118Z,44.33
2023-04-27T18:15:15.442Z,44.59
2023-04-27T18:18:45.346Z,44.68
2023-04-27T18:22:12.643Z,44.65
2023-04-27T18:25:40.116Z,45.13
2023-04-27T18:29:08.124Z,44.78
2023-04-27T18:32:37.145Z,44.89
2023-04-27T18:36:07.536Z,45.18
2023-04-27T18:39:37.251Z,45.57
2023-04-27T18:43:07.185Z,45.53
2023-04-27T18:46:34.879Z,45.89
2023-04-27T18:50:02.079Z,45.88
2023-04-27T18:53:29.392Z,46.08
2023-04-27T18:56:56.474Z,46.05
2023-04-27T19:00:23.840Z,46.45
2023-04-27T19:03:50.869Z,46.49
2023-04-27T19:07:17.688Z,46.48
2023-04-27T19:10:44.613Z,46.55
2023-04-27T19:14:13.129Z,46.76
2023-04-27T19:17:42.155Z,46.79
2023-04-27T19:21:11.105Z,47.08
2023-04-27T19:24:51.295Z,47.16
2023-04-27T19:28:24.436Z,47.33
2023-04-27T19:31:52.069Z,47.34
2023-04-27T19:35:20.704Z,47.68
2023-04-27T19:38:47.871Z,47.61
2023-04-27T19:42:18.296Z,47.84
2023-04-27T19:45:45.346Z,48.02
2023-04-27T19:49:13.946Z,48.02
2023-04-27T19:52:43.261Z,48.34
2023-04-27T19:56:10.811Z,48.41
2023-04-27T19:59:38.242Z,48.67
2023-04-27T20:03:06.701Z,48.80
2023-04-27T20:06:34.655Z,48.95
2023-04-27T20:10:01.338Z,49.18
2023-04-27T20:13:29.065Z,49.32
2023-04-27T20:16:56.203Z,49.51
2023-04-27T20:20:23.066Z,49.40
2023-04-27T20:23:53.756Z,49.46
2023-04-27T20:27:22.219Z,49.55
2023-04-27T20:30:49.968Z,49.73
2023-04-27T20:34:17.348Z,49.61
2023-04-27T20:37:45.445Z,49.77
2023-04-27T20:41:15.313Z,49.71
2023-04-27T20:44:42.095Z,49.81
2023-04-27T20:48:12.131Z,49.83
2023-04-27T20:51:41.715Z,49.96
2023-04-27T20:55:11.378Z,50.18
2023-04-27T20:58:39.008Z,50.25
2023-04-27T21:02:06.695Z,50.28
2023-04-27T21:05:33.714Z,50.46
2023-04-27T21:09:02.016Z,50.56
2023-04-27T21:12:31.754Z,50.63
2023-04-27T21:15:58.774Z,50.69
2023-04-27T21:19:25.636Z,50.80
2023-04-27T21:22:53.116Z,50.90
2023-04-27T21:26:23.535Z,51.10
2023-04-27T21:29:50.478Z,51.32
2023-04-27T21:33:16.985Z,51.44
2023-04-27T21:36:43.765Z,51.41
2023-04-27T21:40:12.158Z,51.65
2023-04-27T21:43:42.229Z,51.78
2023-04-27T21:47:10.132Z,51.52
2023-04-27T21:50:37.421Z,51.56
2023-04-27T21:54:04.391Z,51.66
2023-04-27T21:57:32.731Z,52.06
2023-04-27T22:01:02.562Z,52.07
2023-04-27T22:04:31.245Z,52.02
2023-04-27T22:08:01.017Z,52.22
2023-04-27T22:11:29.604Z,52.48
2023-04-27T22:15:00.709Z,52.25
2023-04-27T22:18:27.645Z,52.67
2023-04-27T22:21:59.191Z,52.52
2023-04-27T22:25:34.292Z,52.71
2023-04-27T22:29:05.035Z,52.99
2023-04-27T22:32:44.667Z,52.88
2023-04-27T22:36:19.622Z,53.13
2023-04-27T22:39:47.615Z,53.26
2023-04-27T22:43:20.483Z,53.22
2023-04-27T22:46:55.879Z,53.60
2023-04-27T22:50:27.365Z,53.81
2023-04-27T22:53:54.754Z,53.78
2023-04-27T22:57:22.108Z,53.75
2023-04-27T23:00:54.441Z,53.71
2023-04-27T23:04:21.934Z,53.97
2023-04-27T23:07:52.061Z,53.69
2023-04-27T23:11:19.269Z,54.00
2023-04-27T23:14:46.470Z,53.95
2023-04-27T23:18:13.080Z,54.09
2023-04-27T23:21:39.524Z,54.12
2023-04-27T23:25:07.440Z,54.17
2023-04-27T23:28:34.796Z,53.94
2023-04-27T23:32:06.324Z,54.29
2023-04-27T23:35:34.660Z,54.66
2023-04-27T23:39:02.066Z,54.61
2023-04-27T23:42:29.066Z,54.32
2023-04-27T23:45:58.449Z,54.57
2023-04-27T23:49:26.599Z,54.76
2023-04-27T23:52:55.072Z,54.94
2023-04-27T23:56:23.505Z,54.93
2023-04-27T23:59:50.187Z,54.91
